createdAt,value
2022-09-23T00:01:11.369Z,1.35
2022-09-23T00:03:42.870Z,1.15
2022-09-23T00:06:12.300Z,1.23
2022-09-23T00:08:39.727Z,1.63
2022-09-23T00:11:12.696Z,1.20
2022-09-23T00:13:42.322Z,1.42
2022-09-23T00:16:14.471Z,0.85
2022-09-23T00:18:42.483Z,1.23
2022-09-23T00:21:11.684Z,1.00
2022-09-23T00:23:40.549Z,1.42
2022-09-23T00:26:08.937Z,1.60
2022-09-23T00:28:36.118Z,1.58
2022-09-23T00:31:04.680Z,1.45
2022-09-23T00:33:31.396Z,1.10
2022-09-23T00:36:02.704Z,1.17
2022-09-23T00:38:29.421Z,1.33
2022-09-23T00:40:56.516Z,1.40
2022-09-23T00:43:39.275Z,1.17
2022-09-23T00:46:09.042Z,1.40
2022-09-23T00:48:39.094Z,1.33
2022-09-23T00:51:09.115Z,0.93
2022-09-23T00:53:36.103Z,1.48
2022-09-23T00:56:07.230Z,1.60
2022-09-23T00:58:37.733Z,1.58
2022-09-23T01:01:04.871Z,2.00
2022-09-23T01:03:31.809Z,1.60
2022-09-23T01:05:59.061Z,1.05
2022-09-23T01:08:27.683Z,1.13
2022-09-23T01:11:02.578Z,1.40
2022-09-23T01:13:55.760Z,1.50
2022-09-23T01:16:29.394Z,1.05
2022-09-23T01:19:08.457Z,1.08
2022-09-23T01:21:35.322Z,1.00
2022-09-23T01:24:26.354Z,1.23
2022-09-23T01:27:14.178Z,1.00
2022-09-23T01:30:11.100Z,1.20
2022-09-23T01:32:52.844Z,1.02
2022-09-23T01:35:25.715Z,0.90
2022-09-23T01:37:59.288Z,1.10
2022-09-23T01:40:54.002Z,1.30
2022-09-23T01:43:33.922Z,1.30
2022-09-23T01:46:08.056Z,1.38
2022-09-23T01:48:49.544Z,1.25
2022-09-23T01:51:25.833Z,1.58
2022-09-23T01:54:16.026Z,1.10
2022-09-23T01:56:51.895Z,1.10
2022-09-23T01:59:26.347Z,1.27
2022-09-23T02:02:03.585Z,1.20
2022-09-23T02:04:57.178Z,1.42
2022-09-23T02:07:37.416Z,1.40
2022-09-23T02:10:19.852Z,1.45
2022-09-23T02:12:52.203Z,1.25
2022-09-23T02:15:26.360Z,1.83
2022-09-23T02:18:09.942Z,1.00
2022-09-23T02:20:41.269Z,1.35
2022-09-23T02:23:50.349Z,1.13
2022-09-23T02:26:38.160Z,1.45
2022-09-23T02:29:29.386Z,1.08
2022-09-23T02:32:24.364Z,1.33
2022-09-23T02:35:05.669Z,0.88
2022-09-23T02:37:58.741Z,1.05
2022-09-23T02:40:36.383Z,0.80
2022-09-23T02:43:33.919Z,0.90
2022-09-23T02:46:00.802Z,1.02
2022-09-23T02:48:34.015Z,1.27
2022-09-23T02:51:03.572Z,1.10
2022-09-23T02:53:33.953Z,1.08
2022-09-23T02:56:01.655Z,1.00
2022-09-23T02:58:29.911Z,1.10
2022-09-23T03:01:06.135Z,1.20
2022-09-23T03:03:32.684Z,1.27
2022-09-23T03:06:06.446Z,1.15
2022-09-23T03:08:48.082Z,1.65
2022-09-23T03:11:17.026Z,1.10
2022-09-23T03:14:17.656Z,1.10
2022-09-23T03:16:53.652Z,1.52
2022-09-23T03:19:42.440Z,1.10
2022-09-23T03:22:14.057Z,0.90
2022-09-23T03:24:44.878Z,1.17
2022-09-23T03:27:16.229Z,1.63
2022-09-23T03:29:49.701Z,1.33
2022-09-23T03:32:20.006Z,1.20
2022-09-23T03:34:51.690Z,1.23
2022-09-23T03:37:26.286Z,1.10
2022-09-23T03:40:17.701Z,1.23
2022-09-23T03:42:44.340Z,1.02
2022-09-23T03:45:18.383Z,1.02
2022-09-23T03:47:45.395Z,0.98
2022-09-23T03:50:13.584Z,1.20
2022-09-23T03:52:40.711Z,1.83
2022-09-23T03:55:07.925Z,0.88
2022-09-23T03:57:35.156Z,1.20
2022-09-23T04:00:01.976Z,0.93
2022-09-23T04:02:38.575Z,1.33
2022-09-23T04:05:06.149Z,1.50
2022-09-23T04:07:32.701Z,1.23
2022-09-23T04:09:59.363Z,1.50
2022-09-23T04:12:25.911Z,1.17
2022-09-23T04:14:52.560Z,1.40
2022-09-23T04:17:19.238Z,1.15
2022-09-23T04:19:45.871Z,1.20
2022-09-23T04:22:12.569Z,1.40
2022-09-23T04:24:39.304Z,1.02
2022-09-23T04:27:06.227Z,1.05
2022-09-23T04:29:32.867Z,1.25
2022-09-23T04:31:59.542Z,1.20
2022-09-23T04:34:26.229Z,2.00
2022-09-23T04:36:52.841Z,1.17
2022-09-23T04:39:19.681Z,1.23
2022-09-23T04:41:46.591Z,1.13
2022-09-23T04:44:13.919Z,1.55
2022-09-23T04:46:47.276Z,1.15
2022-09-23T04:49:15.051Z,1.40
2022-09-23T04:51:43.431Z,1.42
2022-09-23T04:54:12.197Z,1.25
2022-09-23T04:56:39.745Z,1.25
2022-09-23T04:59:07.201Z,1.10
2022-09-23T05:01:35.112Z,1.45
2022-09-23T05:04:05.311Z,2.15
2022-09-23T05:06:34.544Z,1.40
2022-09-23T05:09:01.877Z,2.40
2022-09-23T05:11:30.302Z,2.13
2022-09-23T05:13:57.165Z,2.83
2022-09-23T05:16:24.675Z,2.47
2022-09-23T05:18:52.477Z,1.50
2022-09-23T05:21:21.954Z,1.33
2022-09-23T05:23:52.362Z,1.00
2022-09-23T05:26:19.019Z,1.45
2022-09-23T05:28:45.542Z,1.45
2022-09-23T05:31:20.235Z,1.63
2022-09-23T05:33:54.420Z,1.25
2022-09-23T05:36:22.086Z,1.90
2022-09-23T05:38:50.794Z,2.08
2022-09-23T05:41:18.840Z,1.40
2022-09-23T05:43:45.728Z,1.40
2022-09-23T05:46:17.985Z,1.73
2022-09-23T05:48:48.032Z,1.52
2022-09-23T05:51:17.210Z,1.50
2022-09-23T05:53:45.501Z,1.33
2022-09-23T05:56:17.057Z,1.55
2022-09-23T05:58:44.380Z,2.13
2022-09-23T06:01:21.877Z,2.08
2022-09-23T06:03:49.208Z,1.33
2022-09-23T06:06:20.491Z,1.55
2022-09-23T06:08:47.946Z,1.98
2022-09-23T06:11:15.062Z,1.50
2022-09-23T06:13:42.354Z,1.40
2022-09-23T06:16:12.306Z,1.42
2022-09-23T06:18:40.823Z,1.80
2022-09-23T06:21:08.843Z,1.52
2022-09-23T06:23:39.382Z,1.80
2022-09-23T06:26:09.648Z,2.15
2022-09-23T06:28:38.129Z,1.65
2022-09-23T06:31:13.334Z,1.67
2022-09-23T06:33:41.150Z,1.70
2022-09-23T06:36:08.409Z,2.38
2022-09-23T06:38:38.627Z,1.42
2022-09-23T06:41:05.225Z,1.75
2022-09-23T06:43:31.765Z,2.20
2022-09-23T06:46:00.567Z,1.48
2022-09-23T06:48:28.537Z,2.00
2022-09-23T06:50:59.295Z,1.27
2022-09-23T06:53:25.944Z,1.40
2022-09-23T06:56:06.510Z,1.27
2022-09-23T06:58:34.808Z,1.30
2022-09-23T07:01:08.549Z,1.40
2022-09-23T07:03:36.126Z,1.80
2022-09-23T07:06:03.251Z,1.83
2022-09-23T07:08:33.642Z,1.35
2022-09-23T07:11:03.592Z,1.50
2022-09-23T07:13:32.376Z,1.70
2022-09-23T07:16:01.141Z,2.33
2022-09-23T07:18:36.211Z,2.95
2022-09-23T07:21:09.115Z,2.42
2022-09-23T07:23:37.706Z,2.03
2022-09-23T07:26:04.679Z,2.10
2022-09-23T07:28:32.330Z,2.28
2022-09-23T07:31:04.314Z,2.05
2022-09-23T07:33:32.996Z,1.98
2022-09-23T07:36:04.749Z,2.17
2022-09-23T07:38:31.393Z,2.70
2022-09-23T07:41:18.775Z,3.30
2022-09-23T07:43:47.115Z,2.72
2022-09-23T07:46:17.347Z,2.35
2022-09-23T07:48:45.737Z,2.53
2022-09-23T07:51:20.972Z,2.58
2022-09-23T07:53:49.215Z,2.85
2022-09-23T07:56:16.049Z,2.80
2022-09-23T07:58:42.626Z,2.53
2022-09-23T08:01:11.242Z,2.75
2022-09-23T08:03:39.009Z,2.97
2022-09-23T08:06:08.582Z,2.30
2022-09-23T08:08:36.256Z,3.00
2022-09-23T08:11:08.485Z,2.97
2022-09-23T08:13:35.057Z,2.80
2022-09-23T08:16:02.083Z,3.00
2022-09-23T08:18:29.500Z,2.67
2022-09-23T08:20:56.203Z,3.00
2022-09-23T08:23:23.169Z,3.97
2022-09-23T08:25:59.644Z,3.10
2022-09-23T08:28:27.063Z,3.58
2022-09-23T08:30:53.786Z,3.58
2022-09-23T08:33:23.385Z,3.55
2022-09-23T08:35:51.678Z,3.17
2022-09-23T08:38:20.436Z,3.40
2022-09-23T08:40:50.021Z,3.55
2022-09-23T08:43:37.085Z,3.08
2022-09-23T08:46:10.698Z,3.30
2022-09-23T08:48:47.985Z,3.33
2022-09-23T08:51:22.267Z,4.10
2022-09-23T08:53:49.409Z,4.05
2022-09-23T08:56:22.657Z,3.05
2022-09-23T08:59:14.814Z,4.40
2022-09-23T09:01:49.454Z,3.53
2022-09-23T09:04:40.632Z,4.07
2022-09-23T09:07:31.701Z,4.53
2022-09-23T09:10:18.740Z,4.55
2022-09-23T09:12:53.994Z,3.72
2022-09-23T09:15:26.684Z,4.13
2022-09-23T09:18:19.899Z,4.47
2022-09-23T09:21:14.383Z,3.97
2022-09-23T09:24:00.155Z,4.10
2022-09-23T09:26:31.806Z,4.00
2022-09-23T09:29:17.170Z,4.30
2022-09-23T09:31:51.270Z,4.15
2022-09-23T09:34:38.141Z,5.50
2022-09-23T09:37:07.756Z,4.38
2022-09-23T09:39:35.879Z,4.60
2022-09-23T09:42:04.239Z,4.15
2022-09-23T09:44:37.117Z,5.00
2022-09-23T09:47:40.471Z,4.32
2022-09-23T09:50:13.985Z,4.43
2022-09-23T09:52:42.639Z,4.53
2022-09-23T09:55:12.229Z,4.05
2022-09-23T09:57:44.847Z,4.90
2022-09-23T10:00:26.708Z,4.50
2022-09-23T10:03:16.495Z,3.80
2022-09-23T10:05:46.189Z,3.65
2022-09-23T10:08:18.432Z,3.95
2022-09-23T10:10:54.531Z,3.63
2022-09-23T10:13:26.507Z,3.85
2022-09-23T10:15:56.829Z,4.30
2022-09-23T10:18:32.264Z,4.25
2022-09-23T10:23:40.037Z,3.92
2022-09-23T10:26:12.070Z,3.90
2022-09-23T10:28:47.756Z,3.28
2022-09-23T10:31:22.348Z,4.15
2022-09-23T10:33:50.997Z,3.50
2022-09-23T10:36:18.553Z,3.88
2022-09-23T10:38:50.832Z,3.90
2022-09-23T10:41:55.260Z,3.65
2022-09-23T10:44:46.422Z,3.53
2022-09-23T10:47:52.026Z,4.22
2022-09-23T10:50:31.093Z,3.70
2022-09-23T10:53:25.907Z,3.83
2022-09-23T10:56:34.847Z,3.78
2022-09-23T10:59:27.157Z,3.90
2022-09-23T11:02:28.027Z,4.28
2022-09-23T11:05:01.923Z,3.80
2022-09-23T11:07:44.889Z,3.22
2022-09-23T11:10:44.846Z,3.50
2022-09-23T11:13:24.581Z,3.78
2022-09-23T11:16:17.750Z,3.90
2022-09-23T11:18:56.403Z,3.50
2022-09-23T11:21:38.767Z,4.00
2022-09-23T11:24:31.206Z,3.30
2022-09-23T11:27:20.151Z,3.90
2022-09-23T11:30:10.100Z,2.92
2022-09-23T11:32:51.208Z,3.20
2022-09-23T11:35:34.233Z,4.78
2022-09-23T11:38:07.567Z,4.03
2022-09-23T11:40:43.944Z,4.15
2022-09-23T11:43:21.701Z,3.45
2022-09-23T11:48:32.577Z,3.50
2022-09-23T11:51:11.038Z,3.20
2022-09-23T11:53:41.780Z,3.03
2022-09-23T11:56:11.750Z,4.18
2022-09-23T11:58:51.113Z,3.58
2022-09-23T12:01:37.696Z,4.10
2022-09-23T12:04:19.784Z,3.38
2022-09-23T12:06:54.949Z,3.63
2022-09-23T12:09:57.141Z,3.33
2022-09-23T12:12:41.148Z,4.10
2022-09-23T12:15:16.859Z,4.00
2022-09-23T12:18:06.926Z,3.33
2022-09-23T12:20:36.664Z,3.50
2022-09-23T12:23:13.817Z,3.72
2022-09-23T12:25:47.522Z,3.70
2022-09-23T12:28:23.403Z,3.35
2022-09-23T12:30:52.641Z,3.05
2022-09-23T12:33:24.618Z,3.67
2022-09-23T12:35:54.147Z,3.40
2022-09-23T12:38:25.700Z,3.70
2022-09-23T12:40:55.798Z,3.53
2022-09-23T12:43:35.683Z,3.65
2022-09-23T12:46:26.096Z,3.72
2022-09-23T12:48:58.001Z,3.65
2022-09-23T12:51:26.576Z,3.58
2022-09-23T12:53:59.758Z,3.10
2022-09-23T12:56:48.059Z,4.30
2022-09-23T12:59:23.477Z,3.55
2022-09-23T13:05:13.935Z,3.30
2022-09-23T13:07:45.354Z,3.80
2022-09-23T13:10:22.157Z,3.78
2022-09-23T13:12:49.676Z,3.58
2022-09-23T13:15:38.574Z,2.85
2022-09-23T13:18:23.095Z,3.35
2022-09-23T13:20:54.965Z,3.22
2022-09-23T13:23:31.412Z,3.40
2022-09-23T13:26:01.407Z,3.42
2022-09-23T13:28:37.109Z,4.18
2022-09-23T13:31:06.178Z,5.75
2022-09-23T13:34:02.490Z,3.75
2022-09-23T13:39:15.245Z,3.80
2022-09-23T13:41:45.175Z,3.78
2022-09-23T13:44:20.337Z,4.20
2022-09-23T13:46:53.344Z,4.05
2022-09-23T13:49:26.738Z,3.60
2022-09-23T13:51:54.166Z,2.70
2022-09-23T13:54:49.815Z,3.78
2022-09-23T13:57:34.478Z,4.25
2022-09-23T14:00:16.336Z,3.58
2022-09-23T14:02:43.523Z,2.80
2022-09-23T14:05:12.493Z,3.20
2022-09-23T14:07:39.658Z,3.25
2022-09-23T14:10:08.174Z,2.50
2022-09-23T14:12:39.430Z,2.30
2022-09-23T14:15:07.061Z,2.65
2022-09-23T14:17:34.126Z,2.67
2022-09-23T14:20:01.050Z,3.08
2022-09-23T14:22:29.715Z,3.28
2022-09-23T14:24:57.497Z,2.70
2022-09-23T14:27:29.882Z,3.10
2022-09-23T14:29:57.829Z,4.20
2022-09-23T14:32:28.342Z,2.88
2022-09-23T14:35:01.264Z,2.60
2022-09-23T14:38:00.211Z,2.72
2022-09-23T14:40:50.829Z,2.20
2022-09-23T14:43:23.186Z,2.60
2022-09-23T14:45:56.166Z,2.15
2022-09-23T14:48:31.163Z,2.42
2022-09-23T14:51:00.063Z,2.63
2022-09-23T14:53:35.929Z,2.30
2022-09-23T14:56:11.334Z,2.53
2022-09-23T15:01:41.450Z,2.53
2022-09-23T15:04:11.010Z,2.63
2022-09-23T15:06:40.322Z,2.50
2022-09-23T15:09:07.406Z,2.33
2022-09-23T15:11:36.022Z,2.42
2022-09-23T15:14:32.994Z,1.98
2022-09-23T15:16:53.316Z,2.45
2022-09-23T15:19:22.105Z,3.70
2022-09-23T15:21:54.290Z,3.88
2022-09-23T15:24:42.540Z,4.18
2022-09-23T15:27:19.732Z,2.58
2022-09-23T15:29:46.898Z,1.95
2022-09-23T15:32:13.511Z,1.65
2022-09-23T15:34:40.142Z,1.70
2022-09-23T15:37:11.096Z,1.88
2022-09-23T15:39:38.232Z,2.40
2022-09-23T15:42:05.995Z,2.28
2022-09-23T15:44:33.076Z,2.80
2022-09-23T15:47:01.076Z,2.25
2022-09-23T15:49:41.272Z,1.63
2022-09-23T15:52:10.635Z,1.88
2022-09-23T15:54:37.860Z,2.30
2022-09-23T15:57:04.566Z,2.13
2022-09-23T15:59:31.391Z,1.90
2022-09-23T16:02:05.762Z,1.80
2022-09-23T16:04:32.997Z,1.65
2022-09-23T16:07:00.302Z,1.60
2022-09-23T16:09:31.453Z,1.60
2022-09-23T16:11:58.042Z,1.67
2022-09-23T16:14:24.609Z,1.77
2022-09-23T16:16:51.388Z,1.70
2022-09-23T16:19:17.989Z,1.70
2022-09-23T16:21:44.740Z,1.50
2022-09-23T16:24:16.867Z,1.40
2022-09-23T16:26:45.211Z,1.52
2022-09-23T16:29:11.784Z,1.58
2022-09-23T16:31:38.775Z,1.90
2022-09-23T16:34:05.778Z,1.40
2022-09-23T16:36:34.966Z,1.30
2022-09-23T16:39:05.294Z,1.83
2022-09-23T16:41:32.586Z,1.52
2022-09-23T16:44:00.929Z,1.45
2022-09-23T16:46:29.262Z,1.60
2022-09-23T16:48:57.564Z,2.08
2022-09-23T16:51:26.739Z,3.00
2022-09-23T16:53:55.399Z,2.00
2022-09-23T16:56:28.378Z,3.30
2022-09-23T16:58:56.500Z,2.42
2022-09-23T17:01:46.725Z,2.10
2022-09-23T17:04:15.018Z,1.95
2022-09-23T17:06:52.478Z,2.95
2022-09-23T17:09:21.113Z,2.05
2022-09-23T17:12:06.159Z,2.22
2022-09-23T17:14:34.584Z,2.00
2022-09-23T17:17:01.221Z,1.80
2022-09-23T17:19:28.654Z,1.70
2022-09-23T17:21:55.194Z,2.20
2022-09-23T17:24:21.839Z,2.15
2022-09-23T17:26:52.768Z,3.22
2022-09-23T17:29:19.990Z,3.00
2022-09-23T17:31:46.613Z,2.13
2022-09-23T17:34:13.645Z,2.20
2022-09-23T17:36:40.475Z,1.55
2022-09-23T17:39:07.296Z,1.60
2022-09-23T17:41:33.921Z,2.10
2022-09-23T17:44:00.758Z,1.52
2022-09-23T17:46:28.803Z,2.00
2022-09-23T17:48:55.564Z,1.77
2022-09-23T17:51:23.035Z,1.90
2022-09-23T17:53:50.206Z,2.08
2022-09-23T17:56:29.999Z,1.75
2022-09-23T17:59:01.238Z,1.90
2022-09-23T18:01:28.287Z,1.90
2022-09-23T18:03:56.536Z,1.80
2022-09-23T18:06:25.361Z,1.67
2022-09-23T18:08:52.666Z,2.33
2022-09-23T18:11:22.163Z,2.53
2022-09-23T18:13:54.938Z,2.75
2022-09-23T18:16:24.834Z,2.40
2022-09-23T18:18:56.445Z,2.53
2022-09-23T18:21:25.369Z,2.90
2022-09-23T18:23:52.229Z,2.03
2022-09-23T18:26:21.486Z,2.55
2022-09-23T18:28:49.263Z,2.60
2022-09-23T18:31:16.275Z,2.42
2022-09-23T18:33:43.069Z,2.15
2022-09-23T18:36:10.111Z,2.20
2022-09-23T18:38:36.602Z,2.15
2022-09-23T18:41:03.349Z,2.47
2022-09-23T18:43:40.766Z,2.13
2022-09-23T18:46:13.361Z,1.98
2022-09-23T18:48:59.162Z,2.45
2022-09-23T18:51:28.939Z,1.55
2022-09-23T18:54:00.337Z,2.00
2022-09-23T18:56:41.634Z,1.80
2022-09-23T18:59:11.910Z,1.80
2022-09-23T19:01:38.777Z,1.95
2022-09-23T19:04:06.669Z,2.20
2022-09-23T19:06:34.986Z,1.98
2022-09-23T19:09:01.981Z,2.17
2022-09-23T19:11:28.638Z,2.08
2022-09-23T19:14:01.822Z,1.90
2022-09-23T19:16:31.610Z,1.92
2022-09-23T19:18:59.864Z,2.33
2022-09-23T19:21:27.367Z,2.47
2022-09-23T19:24:03.690Z,1.95
2022-09-23T19:26:33.976Z,2.00
2022-09-23T19:29:02.411Z,2.38
2022-09-23T19:31:33.170Z,4.55
2022-09-23T19:34:02.307Z,6.15
2022-09-23T19:36:31.679Z,5.47
2022-09-23T19:39:02.872Z,6.22
2022-09-23T19:41:35.361Z,4.03
2022-09-23T19:44:03.441Z,3.58
2022-09-23T19:46:33.657Z,3.50
2022-09-23T19:49:00.973Z,3.28
2022-09-23T19:51:28.236Z,2.35
2022-09-23T19:53:54.782Z,2.08
2022-09-23T19:56:21.287Z,1.70
2022-09-23T19:58:52.221Z,1.70
2022-09-23T20:01:19.167Z,1.88
2022-09-23T20:03:47.022Z,1.95
2022-09-23T20:06:15.131Z,2.45
2022-09-23T20:08:42.828Z,3.47
2022-09-23T20:11:15.853Z,3.92
2022-09-23T20:13:44.403Z,5.70
2022-09-23T20:16:14.486Z,3.50
2022-09-23T20:18:42.145Z,3.22
2022-09-23T20:21:11.903Z,2.95
2022-09-23T20:23:38.656Z,2.70
2022-09-23T20:26:24.643Z,2.58
2022-09-23T20:28:51.616Z,2.88
2022-09-23T20:31:20.787Z,2.40
2022-09-23T20:33:58.032Z,2.90
2022-09-23T20:36:26.599Z,2.40
2022-09-23T20:38:54.690Z,3.03
2022-09-23T20:41:21.506Z,1.92
2022-09-23T20:43:50.566Z,2.40
2022-09-23T20:46:17.280Z,2.15
2022-09-23T20:48:46.382Z,2.28
2022-09-23T20:51:12.979Z,2.53
2022-09-23T20:53:39.462Z,2.05
2022-09-23T20:56:06.518Z,1.88
2022-09-23T20:58:37.083Z,2.00
2022-09-23T21:01:13.367Z,2.63
2022-09-23T21:03:42.530Z,2.47
2022-09-23T21:06:10.022Z,2.13
2022-09-23T21:08:37.539Z,2.00
2022-09-23T21:11:07.941Z,2.40
2022-09-23T21:13:35.229Z,2.10
2022-09-23T21:16:03.564Z,2.67
2022-09-23T21:18:30.983Z,2.03
2022-09-23T21:20:59.242Z,2.28
2022-09-23T21:23:30.891Z,2.47
2022-09-23T21:26:19.258Z,1.95
2022-09-23T21:28:51.465Z,2.30
2022-09-23T21:31:23.817Z,2.00
2022-09-23T21:34:01.771Z,2.05
2022-09-23T21:36:30.587Z,1.65
2022-09-23T21:38:58.067Z,2.33
2022-09-23T21:41:25.204Z,2.40
2022-09-23T21:43:51.793Z,2.05
2022-09-23T21:46:20.425Z,2.10
2022-09-23T21:48:49.901Z,1.77
2022-09-23T21:51:19.125Z,1.70
2022-09-23T21:53:46.768Z,1.98
2022-09-23T21:56:19.619Z,2.53
2022-09-23T21:58:47.661Z,1.75
2022-09-23T22:01:45.076Z,2.22
2022-09-23T22:04:16.019Z,2.35
2022-09-23T22:06:43.354Z,2.42
2022-09-23T22:09:16.866Z,2.65
2022-09-23T22:12:02.331Z,2.17
2022-09-23T22:14:30.491Z,2.08
2022-09-23T22:17:01.301Z,2.10
2022-09-23T22:19:35.646Z,1.98
2022-09-23T22:22:07.675Z,2.47
2022-09-23T22:24:34.368Z,1.70
2022-09-23T22:27:00.919Z,1.98
2022-09-23T22:29:46.204Z,2.28
2022-09-23T22:32:31.332Z,2.13
2022-09-23T22:34:57.931Z,2.45
2022-09-23T22:37:32.803Z,2.38
2022-09-23T22:40:00.506Z,1.95
2022-09-23T22:42:27.648Z,2.20
2022-09-23T22:44:55.585Z,2.20
2022-09-23T22:47:22.337Z,2.33
2022-09-23T22:49:49.256Z,2.05
2022-09-23T22:52:21.165Z,1.80
2022-09-23T22:54:47.997Z,2.00
2022-09-23T22:57:15.259Z,2.45
2022-09-23T22:59:47.794Z,1.90
2022-09-23T23:02:18.696Z,2.40
2022-09-23T23:04:49.093Z,2.67
2022-09-23T23:07:22.980Z,1.80
2022-09-23T23:09:50.391Z,2.10
2022-09-23T23:12:20.230Z,1.73
2022-09-23T23:14:48.531Z,1.85
2022-09-23T23:17:15.091Z,2.22
2022-09-23T23:19:41.642Z,2.00
2022-09-23T23:22:08.175Z,2.47
2022-09-23T23:24:34.787Z,2.10
2022-09-23T23:27:01.326Z,2.50
2022-09-23T23:29:27.946Z,2.50
2022-09-23T23:31:54.698Z,2.35
2022-09-23T23:34:21.860Z,2.72
2022-09-23T23:36:54.722Z,2.00
2022-09-23T23:39:25.933Z,2.17
2022-09-23T23:41:57.667Z,2.03
2022-09-23T23:44:26.204Z,2.03
2022-09-23T23:46:54.080Z,1.83
2022-09-23T23:49:21.510Z,2.10
2022-09-23T23:51:48.099Z,1.90
2022-09-23T23:54:15.277Z,2.63
2022-09-23T23:56:41.989Z,2.03
2022-09-23T23:59:08.601Z,2.20
